createdAt,value
2022-09-21T00:02:22.900Z,7.10
2022-09-21T00:07:31.603Z,7.00
2022-09-21T00:12:40.007Z,7.00
2022-09-21T00:17:51.367Z,7.10
2022-09-21T00:22:59.057Z,7.20
2022-09-21T00:28:05.783Z,7.30
2022-09-21T00:33:12.684Z,7.20
2022-09-21T00:38:19.449Z,7.20
2022-09-21T00:43:27.364Z,7.10
2022-09-21T00:48:36.854Z,7.20
2022-09-21T00:53:43.724Z,7.40
2022-09-21T00:58:53.400Z,7.40
2022-09-21T01:04:01.002Z,7.10
2022-09-21T01:09:09.391Z,7.10
2022-09-21T01:14:50.794Z,7.10
2022-09-21T01:20:23.691Z,7.10
2022-09-21T01:25:41.095Z,7.10
2022-09-21T01:30:49.744Z,7.20
2022-09-21T01:36:03.991Z,7.40
2022-09-21T01:41:15.220Z,7.40
2022-09-21T01:46:26.486Z,7.30
2022-09-21T01:51:36.121Z,7.20
2022-09-21T01:56:53.807Z,7.30
2022-09-21T02:02:05.025Z,7.10
2022-09-21T02:07:12.842Z,7.20
2022-09-21T02:12:19.576Z,7.50
2022-09-21T02:17:34.759Z,7.00
2022-09-21T02:22:52.058Z,6.90
2022-09-21T02:28:15.063Z,7.00
2022-09-21T02:33:32.751Z,6.70
2022-09-21T02:38:52.418Z,6.70
2022-09-21T02:44:07.538Z,6.80
2022-09-21T02:49:20.848Z,6.90
2022-09-21T02:54:31.506Z,7.00
2022-09-21T02:59:38.312Z,7.20
2022-09-21T03:04:51.546Z,7.40
2022-09-21T03:10:01.291Z,7.20
2022-09-21T03:15:09.332Z,7.20
2022-09-21T03:20:17.608Z,7.30
2022-09-21T03:25:25.006Z,7.20
2022-09-21T03:30:32.026Z,7.20
2022-09-21T03:35:39.002Z,7.10
2022-09-21T03:40:50.849Z,7.30
2022-09-21T03:45:59.940Z,7.60
2022-09-21T03:51:08.124Z,7.40
2022-09-21T03:56:14.800Z,7.30
2022-09-21T04:01:24.191Z,7.10
2022-09-21T04:06:32.349Z,7.00
2022-09-21T04:11:40.054Z,7.10
2022-09-21T04:16:46.787Z,7.20
2022-09-21T04:21:54.492Z,6.90
2022-09-21T04:27:01.887Z,6.80
2022-09-21T04:32:09.876Z,6.60
2022-09-21T04:37:16.531Z,6.60
2022-09-21T04:42:25.445Z,6.60
2022-09-21T04:47:33.645Z,6.60
2022-09-21T04:52:40.449Z,6.50
2022-09-21T04:57:47.629Z,6.80
2022-09-21T05:02:54.807Z,7.00
2022-09-21T05:08:01.533Z,6.80
2022-09-21T05:13:08.191Z,6.80
2022-09-21T05:18:14.897Z,6.90
2022-09-21T05:23:21.583Z,6.60
2022-09-21T05:28:30.126Z,6.60
2022-09-21T05:33:40.583Z,6.60
2022-09-21T05:38:48.188Z,6.50
2022-09-21T05:43:55.347Z,6.50
2022-09-21T05:49:18.724Z,6.70
2022-09-21T05:54:47.581Z,6.50
2022-09-21T06:00:01.254Z,6.50
2022-09-21T06:05:13.956Z,6.80
2022-09-21T06:10:21.895Z,6.60
2022-09-21T06:15:28.507Z,6.70
2022-09-21T06:20:35.276Z,6.60
2022-09-21T06:25:42.572Z,6.60
2022-09-21T06:30:56.130Z,6.70
2022-09-21T06:36:04.557Z,6.70
2022-09-21T06:41:11.267Z,7.00
2022-09-21T06:46:17.870Z,7.00
2022-09-21T06:51:24.528Z,7.10
2022-09-21T06:56:31.200Z,7.10
2022-09-21T07:01:37.978Z,7.30
2022-09-21T07:06:45.781Z,7.30
2022-09-21T07:11:52.488Z,7.30
2022-09-21T07:17:00.102Z,7.50
2022-09-21T07:22:06.800Z,7.30
2022-09-21T07:27:13.483Z,7.50
2022-09-21T07:32:20.919Z,7.60
2022-09-21T07:37:27.987Z,7.70
2022-09-21T07:42:35.391Z,7.70
2022-09-21T07:47:42.048Z,7.90
2022-09-21T07:52:48.726Z,7.90
2022-09-21T07:58:13.281Z,8.10
2022-09-21T08:03:18.787Z,8.30
2022-09-21T08:08:26.367Z,8.50
2022-09-21T08:13:35.758Z,8.70
2022-09-21T08:18:43.997Z,8.70
2022-09-21T08:23:51.473Z,9.00
2022-09-21T08:28:59.544Z,9.30
2022-09-21T08:34:06.733Z,9.70
2022-09-21T08:39:14.325Z,10.40
2022-09-21T08:44:35.097Z,11.30
2022-09-21T08:49:46.303Z,11.60
2022-09-21T08:55:21.263Z,11.90
2022-09-21T09:00:26.850Z,11.80
2022-09-21T09:05:55.755Z,11.40
2022-09-21T09:11:40.203Z,11.80
2022-09-21T09:16:51.393Z,12.30
2022-09-21T09:21:59.314Z,12.40
2022-09-21T09:27:32.989Z,13.30
2022-09-21T09:32:44.177Z,13.30
2022-09-21T09:37:54.376Z,13.70
2022-09-21T09:43:08.501Z,13.50
2022-09-21T09:48:34.452Z,13.30
2022-09-21T09:53:42.400Z,12.70
2022-09-21T09:59:03.175Z,12.30
2022-09-21T10:04:13.672Z,12.10
2022-09-21T10:09:31.820Z,12.10
2022-09-21T10:14:39.910Z,11.70
2022-09-21T10:19:49.163Z,13.20
2022-09-21T10:24:59.907Z,14.20
2022-09-21T10:30:09.600Z,13.20
2022-09-21T10:35:22.059Z,12.80
2022-09-21T10:40:31.190Z,12.30
2022-09-21T10:45:39.213Z,11.60
2022-09-21T10:50:52.319Z,11.80
2022-09-21T10:56:15.624Z,12.00
2022-09-21T11:01:23.740Z,12.50
2022-09-21T11:06:47.083Z,14.20
2022-09-21T11:12:17.346Z,13.80
2022-09-21T11:17:34.178Z,13.10
2022-09-21T11:23:18.703Z,12.50
2022-09-21T11:28:41.137Z,12.00
2022-09-21T11:33:58.312Z,11.90
2022-09-21T11:39:16.219Z,12.10
2022-09-21T11:44:54.528Z,12.00
2022-09-21T11:50:30.716Z,12.20
2022-09-21T11:55:55.854Z,11.90
2022-09-21T12:01:26.639Z,11.80
2022-09-21T12:06:59.262Z,11.70
2022-09-21T12:12:35.360Z,11.90
2022-09-21T12:18:07.549Z,11.80
2022-09-21T12:23:33.957Z,11.90
2022-09-21T12:28:50.913Z,12.10
2022-09-21T12:34:20.317Z,12.00
2022-09-21T12:39:37.564Z,12.00
2022-09-21T12:45:00.448Z,11.90
2022-09-21T12:50:12.987Z,11.70
2022-09-21T12:55:48.473Z,11.60
2022-09-21T13:01:17.886Z,11.40
2022-09-21T13:07:08.529Z,11.50
2022-09-21T13:12:30.028Z,11.50
2022-09-21T13:17:37.003Z,11.90
2022-09-21T13:22:43.838Z,12.20
2022-09-21T13:28:19.363Z,12.10
2022-09-21T13:33:30.608Z,12.20
2022-09-21T13:38:53.546Z,12.20
2022-09-21T13:44:07.126Z,12.20
2022-09-21T13:49:29.708Z,12.30
2022-09-21T13:54:54.978Z,12.10
2022-09-21T14:00:12.941Z,12.20
2022-09-21T14:05:46.438Z,12.20
2022-09-21T14:11:08.177Z,12.20
2022-09-21T14:16:41.646Z,12.40
2022-09-21T14:22:11.288Z,12.50
2022-09-21T14:27:28.404Z,12.30
2022-09-21T14:32:44.708Z,12.60
2022-09-21T14:37:58.778Z,13.20
2022-09-21T14:43:12.749Z,13.50
2022-09-21T14:48:33.040Z,13.30
2022-09-21T14:53:54.655Z,13.50
2022-09-21T14:59:34.835Z,13.40
2022-09-21T15:05:11.415Z,13.50
2022-09-21T15:10:55.313Z,13.60
2022-09-21T15:16:29.280Z,13.30
2022-09-21T15:21:38.853Z,13.10
2022-09-21T15:26:45.548Z,13.10
2022-09-21T15:31:52.682Z,12.90
2022-09-21T15:37:16.935Z,12.80
2022-09-21T15:42:24.570Z,12.60
2022-09-21T15:47:31.243Z,12.40
2022-09-21T15:52:44.118Z,12.20
2022-09-21T15:57:56.529Z,12.10
2022-09-21T16:03:08.046Z,11.90
2022-09-21T16:08:25.555Z,11.80
2022-09-21T16:13:52.563Z,11.70
2022-09-21T16:19:01.286Z,11.60
2022-09-21T16:24:19.748Z,11.30
2022-09-21T16:29:31.138Z,11.30
2022-09-21T16:34:39.380Z,11.20
2022-09-21T16:39:46.503Z,10.90
2022-09-21T16:44:55.056Z,10.90
2022-09-21T16:50:02.390Z,11.00
2022-09-21T16:55:12.882Z,10.70
2022-09-21T17:00:23.075Z,10.50
2022-09-21T17:05:29.763Z,10.40
2022-09-21T17:10:42.039Z,10.40
2022-09-21T17:15:55.860Z,10.30
2022-09-21T17:21:05.269Z,10.20
2022-09-21T17:26:21.494Z,9.80
2022-09-21T17:31:29.758Z,9.50
2022-09-21T17:36:37.784Z,9.10
2022-09-21T17:42:08.742Z,8.80
2022-09-21T17:47:26.972Z,8.70
2022-09-21T17:52:56.344Z,8.70
2022-09-21T17:58:12.425Z,8.80
2022-09-21T18:03:31.649Z,8.80
2022-09-21T18:08:44.545Z,8.70
2022-09-21T18:14:18.987Z,8.70
2022-09-21T18:19:44.719Z,8.40
2022-09-21T18:24:56.008Z,8.30
2022-09-21T18:30:06.729Z,8.20
2022-09-21T18:35:24.199Z,8.10
2022-09-21T18:40:39.504Z,8.10
2022-09-21T18:45:56.703Z,8.00
2022-09-21T18:51:18.474Z,8.00
2022-09-21T18:56:37.549Z,8.10
2022-09-21T19:01:51.080Z,8.10
2022-09-21T19:07:06.120Z,8.10
2022-09-21T19:12:46.728Z,8.00
2022-09-21T19:18:09.954Z,7.90
2022-09-21T19:23:45.065Z,7.80
2022-09-21T19:29:09.806Z,7.70
2022-09-21T19:34:26.752Z,7.60
2022-09-21T19:39:40.924Z,7.80
2022-09-21T19:45:06.096Z,7.70
2022-09-21T19:50:23.520Z,7.80
2022-09-21T19:55:52.798Z,7.90
2022-09-21T20:01:02.417Z,7.70
2022-09-21T20:06:25.057Z,7.60
2022-09-21T20:12:04.541Z,7.60
2022-09-21T20:17:19.685Z,7.50
2022-09-21T20:22:42.275Z,7.40
2022-09-21T20:27:57.521Z,7.60
2022-09-21T20:33:08.132Z,7.50
2022-09-21T20:38:16.050Z,7.60
2022-09-21T20:43:31.718Z,7.30
2022-09-21T20:48:35.136Z,7.30
2022-09-21T20:53:45.062Z,7.20
2022-09-21T20:58:53.830Z,7.20
2022-09-21T21:04:02.267Z,7.00
2022-09-21T21:09:10.466Z,6.90
2022-09-21T21:14:21.151Z,6.80
2022-09-21T21:19:30.500Z,6.90
2022-09-21T21:24:43.402Z,6.90
2022-09-21T21:29:56.846Z,6.90
2022-09-21T21:35:06.823Z,6.90
2022-09-21T21:40:16.391Z,6.90
2022-09-21T21:45:25.131Z,7.20
2022-09-21T21:50:34.765Z,7.00
2022-09-21T21:55:46.417Z,6.90
2022-09-21T22:00:53.285Z,6.90
2022-09-21T22:06:02.111Z,7.00
2022-09-21T22:11:10.342Z,6.70
2022-09-21T22:16:23.106Z,6.60
2022-09-21T22:21:39.115Z,6.70
2022-09-21T22:26:50.261Z,6.90
2022-09-21T22:31:57.922Z,6.90
2022-09-21T22:37:08.693Z,6.70
2022-09-21T22:42:15.741Z,6.50
2022-09-21T22:47:24.243Z,6.80
2022-09-21T22:52:30.988Z,6.70
2022-09-21T22:57:37.686Z,6.60
2022-09-21T23:02:45.341Z,6.50
2022-09-21T23:07:59.261Z,6.50
2022-09-21T23:13:07.082Z,6.50
2022-09-21T23:18:14.803Z,6.60
2022-09-21T23:23:22.364Z,6.40
2022-09-21T23:28:32.838Z,6.70
2022-09-21T23:33:48.301Z,6.60
2022-09-21T23:38:58.637Z,6.70
2022-09-21T23:44:09.437Z,6.70
2022-09-21T23:49:20.965Z,6.70
2022-09-21T23:54:29.241Z,6.60
2022-09-21T23:59:36.256Z,6.70
